Time;durP1;ratioP1;P1;durP2;ratioP2;P2;SDS_P1;SDS_P2;PMS_P1;PMS_P2;Temp;Humidity;BMP_temperature;BMP_pressure;BME280_temperature;BME280_humidity;BME280_pressure;Samples;Min_cycle;Max_cycle;Signal;HPM_P1;HPM_P2
2023/08/07 00:04:43;;;;;;;1.20;1.10;;;15.80;45.00;;;;;;10277015;28;20224;-73
2023/08/07 00:09:47;;;;;;;1.20;1.10;;;15.70;45.00;;;;;;10285112;28;20306;-73
2023/08/07 00:14:51;;;;;;;1.20;1.10;;;15.60;45.60;;;;;;10284859;28;20244;-73
2023/08/07 00:19:54;;;;;;;0.90;0.90;;;15.50;45.60;;;;;;10284681;28;20241;-73
2023/08/07 00:24:59;;;;;;;0.93;0.93;;;15.40;45.70;;;;;;10261668;28;20733;-73
2023/08/07 00:30:02;;;;;;;0.93;0.90;;;15.30;46.20;;;;;;10318983;28;20326;-73
2023/08/07 00:35:08;;;;;;;1.10;1.00;;;15.20;46.20;;;;;;10324269;28;20231;-73
2023/08/07 00:40:12;;;;;;;1.33;1.03;;;15.10;46.60;;;;;;10298241;28;20320;-73
2023/08/07 00:45:17;;;;;;;1.00;0.90;;;15.00;47.00;;;;;;10243727;29;20870;-73
2023/08/07 00:50:20;;;;;;;1.30;0.90;;;15.00;46.90;;;;;;10243865;29;20260;-73
2023/08/07 00:55:30;;;;;;;1.37;1.27;;;15.00;46.90;;;;;;10243558;29;20307;-73
2023/08/07 01:00:33;;;;;;;1.00;0.90;;;15.00;47.50;;;;;;10243382;28;20719;-73
2023/08/07 01:05:36;;;;;;;1.33;1.00;;;14.90;47.00;;;;;;10243427;29;20256;-73
2023/08/07 01:10:55;;;;;;;1.20;1.10;;;14.80;47.00;;;;;;10242855;28;20327;-73
2023/08/07 01:16:03;;;;;;;1.00;1.00;;;14.80;48.10;;;;;;10242921;29;20236;-73
2023/08/07 01:21:06;;;;;;;1.33;1.00;;;14.70;47.80;;;;;;10242924;29;20246;-73
2023/08/07 01:26:11;;;;;;;1.23;0.97;;;14.70;47.60;;;;;;10243162;28;20240;-73
2023/08/07 01:31:21;;;;;;;0.80;0.80;;;14.60;47.90;;;;;;10258449;28;20820;-73
2023/08/07 01:36:25;;;;;;;0.87;0.87;;;14.60;48.50;;;;;;10242732;28;20240;-73
2023/08/07 01:41:31;;;;;;;0.97;0.93;;;14.60;47.90;;;;;;10242518;28;20236;-72
2023/08/07 01:46:34;;;;;;;1.10;1.10;;;14.50;48.20;;;;;;10242585;28;20228;-73
2023/08/07 01:51:37;;;;;;;1.00;1.00;;;14.50;48.10;;;;;;10242475;28;20251;-72
2023/08/07 01:56:42;;;;;;;1.30;1.20;;;14.50;48.30;;;;;;10242281;28;20935;-73
2023/08/07 02:01:45;;;;;;;1.40;1.30;;;14.50;48.60;;;;;;10242402;28;20236;-73
2023/08/07 02:06:48;;;;;;;1.00;1.00;;;14.40;48.20;;;;;;10242065;28;20232;-73
2023/08/07 02:11:53;;;;;;;1.03;1.00;;;14.50;48.30;;;;;;10242273;28;20237;-73
2023/08/07 02:16:56;;;;;;;1.73;1.10;;;14.50;48.80;;;;;;10242043;28;20240;-73
2023/08/07 02:21:59;;;;;;;1.27;1.17;;;14.50;48.40;;;;;;10260415;28;20248;-73
2023/08/07 02:27:04;;;;;;;1.20;1.10;;;14.50;48.30;;;;;;10288764;28;20239;-72
2023/08/07 02:32:08;;;;;;;1.80;1.30;;;14.60;48.50;;;;;;10288686;28;20240;-73
2023/08/07 02:37:11;;;;;;;1.37;1.20;;;14.50;48.40;;;;;;10288373;28;20240;-73
2023/08/07 02:42:16;;;;;;;1.43;1.30;;;14.50;48.40;;;;;;10288389;28;20240;-73
2023/08/07 02:47:19;;;;;;;1.63;0.80;;;14.50;48.80;;;;;;10287973;28;20232;-73
2023/08/07 02:52:22;;;;;;;4.47;1.10;;;14.50;48.60;;;;;;10288204;28;20227;-73
2023/08/07 02:57:27;;;;;;;1.30;1.20;;;14.50;48.40;;;;;;10287733;28;20772;-73
2023/08/07 03:02:30;;;;;;;1.60;1.10;;;14.50;48.60;;;;;;10287339;28;20924;-73
2023/08/07 03:07:33;;;;;;;1.23;1.07;;;14.50;48.30;;;;;;10267770;28;20236;-73
2023/08/07 03:12:38;;;;;;;1.60;1.10;;;14.50;48.30;;;;;;10267476;28;20277;-73
2023/08/07 03:17:41;;;;;;;1.10;1.00;;;14.50;48.80;;;;;;10286698;28;20243;-73
2023/08/07 03:22:44;;;;;;;3.40;1.50;;;14.50;48.30;;;;;;10287280;28;20227;-73
2023/08/07 03:27:49;;;;;;;1.73;1.40;;;14.50;48.30;;;;;;10286536;28;20327;-73
2023/08/07 03:32:52;;;;;;;3.77;1.20;;;14.50;48.80;;;;;;10285934;28;20716;-73
2023/08/07 03:37:55;;;;;;;3.07;1.30;;;14.50;48.30;;;;;;10255270;28;20240;-73
2023/08/07 03:43:00;;;;;;;1.70;1.37;;;14.50;48.60;;;;;;10245935;28;20231;-73
2023/08/07 03:48:03;;;;;;;3.70;1.47;;;14.40;48.70;;;;;;10245338;28;20240;-73
2023/08/07 03:53:07;;;;;;;4.30;1.80;;;14.40;48.50;;;;;;10253567;28;20315;-73
2023/08/07 03:58:12;;;;;;;2.73;1.40;;;14.40;48.70;;;;;;10285036;28;20669;-73
2023/08/07 04:03:15;;;;;;;1.40;1.20;;;14.40;48.90;;;;;;10284968;28;20235;-73
2023/08/07 04:08:18;;;;;;;3.27;1.73;;;14.40;48.60;;;;;;10284960;28;20294;-73
2023/08/07 04:13:23;;;;;;;3.27;1.30;;;14.40;48.70;;;;;;10266808;28;20240;-73
2023/08/07 04:18:26;;;;;;;3.00;1.47;;;14.30;49.00;;;;;;10244403;28;20240;-73
2023/08/07 04:23:31;;;;;;;2.33;1.47;;;14.30;48.70;;;;;;10244671;28;20255;-73
2023/08/07 04:28:35;;;;;;;5.07;1.40;;;14.30;48.80;;;;;;10244369;28;20251;-73
2023/08/07 04:33:38;;;;;;;3.00;1.37;;;14.30;49.10;;;;;;10243993;28;20707;-73
2023/08/07 04:38:42;;;;;;;1.67;1.30;;;14.30;48.80;;;;;;10244095;28;20232;-73
2023/08/07 04:43:48;;;;;;;1.50;1.40;;;14.30;48.90;;;;;;10243331;28;20239;-73
2023/08/07 04:48:51;;;;;;;1.90;1.50;;;14.30;49.20;;;;;;10273456;28;20255;-73
2023/08/07 04:53:56;;;;;;;2.27;1.30;;;14.30;48.90;;;;;;10283693;28;20242;-73
2023/08/07 04:59:01;;;;;;;3.00;1.50;;;14.30;48.80;;;;;;10282996;28;20319;-73
2023/08/07 05:04:05;;;;;;;1.50;1.40;;;14.30;49.30;;;;;;10282642;28;20224;-73
2023/08/07 05:09:08;;;;;;;1.63;1.40;;;14.30;48.70;;;;;;10282888;28;20247;-73
2023/08/07 05:14:13;;;;;;;3.63;1.33;;;14.30;48.60;;;;;;10282244;28;20765;-73
2023/08/07 05:19:16;;;;;;;1.70;1.40;;;14.30;48.80;;;;;;10282694;28;20243;-74
2023/08/07 05:24:19;;;;;;;2.17;1.40;;;14.30;48.50;;;;;;10282416;28;20250;-74
2023/08/07 05:29:24;;;;;;;1.80;1.50;;;14.30;48.50;;;;;;10281876;28;20231;-74
2023/08/07 05:34:27;;;;;;;2.27;1.60;;;14.20;48.90;;;;;;10282082;28;20251;-74
2023/08/07 05:39:30;;;;;;;3.53;2.50;;;14.30;48.60;;;;;;10281746;28;20239;-73
2023/08/07 05:44:35;;;;;;;2.53;1.83;;;14.20;48.50;;;;;;10281762;28;20239;-74
2023/08/07 05:49:38;;;;;;;2.30;2.10;;;14.20;49.00;;;;;;10282125;28;20764;-74
2023/08/07 05:54:41;;;;;;;3.27;1.80;;;14.20;48.70;;;;;;10281908;28;20234;-73
2023/08/07 05:59:46;;;;;;;3.40;2.97;;;14.20;48.60;;;;;;10288970;28;20326;-73
2023/08/07 06:04:49;;;;;;;2.47;1.97;;;14.20;49.10;;;;;;10289319;28;20318;-73
2023/08/07 06:09:52;;;;;;;2.43;1.80;;;14.20;48.80;;;;;;10289020;28;20247;-73
2023/08/07 06:14:57;;;;;;;2.17;1.80;;;14.20;48.70;;;;;;10289037;28;20247;-73
2023/08/07 06:20:00;;;;;;;3.00;1.77;;;14.20;48.90;;;;;;10288871;28;20243;-73
2023/08/07 06:25:05;;;;;;;2.67;1.70;;;14.30;48.70;;;;;;10288544;28;20323;-73
2023/08/07 06:30:11;;;;;;;1.80;1.70;;;14.30;48.50;;;;;;10288323;28;20315;-73
2023/08/07 06:35:14;;;;;;;2.53;1.70;;;14.20;48.70;;;;;;10288450;28;20236;-73
2023/08/07 06:40:18;;;;;;;2.93;1.73;;;14.30;48.70;;;;;;10288290;28;20239;-73
2023/08/07 06:45:22;;;;;;;2.23;1.60;;;14.30;48.40;;;;;;10288046;28;20232;-73
2023/08/07 06:50:25;;;;;;;2.33;1.67;;;14.30;48.60;;;;;;10288006;28;20239;-73
2023/08/07 06:55:28;;;;;;;2.03;1.27;;;14.40;48.60;;;;;;10287797;28;20667;-73
2023/08/07 07:00:35;;;;;;;2.37;1.70;;;14.40;48.70;;;;;;10287043;28;20731;-73
2023/08/07 07:05:38;;;;;;;2.30;1.67;;;14.40;48.90;;;;;;10287187;28;20250;-73
2023/08/07 07:10:41;;;;;;;1.87;1.70;;;14.40;48.60;;;;;;10287155;28;20231;-73
2023/08/07 07:15:46;;;;;;;3.80;1.83;;;14.50;48.70;;;;;;10286620;28;20231;-73
2023/08/07 07:20:49;;;;;;;2.03;1.77;;;14.50;48.80;;;;;;10286668;28;20314;-73
2023/08/07 07:25:52;;;;;;;3.37;1.77;;;14.50;48.80;;;;;;10286585;28;20235;-73
2023/08/07 07:30:56;;;;;;;1.80;1.50;;;14.60;48.70;;;;;;10286423;28;20250;-73
2023/08/07 07:36:01;;;;;;;2.07;1.50;;;14.60;48.90;;;;;;10286285;28;20245;-73
2023/08/07 07:41:04;;;;;;;2.37;1.50;;;14.60;49.10;;;;;;10285446;28;20287;-74
2023/08/07 07:46:09;;;;;;;2.90;1.73;;;14.70;48.90;;;;;;10285808;28;20238;-73
2023/08/07 07:51:12;;;;;;;1.87;1.60;;;14.80;49.10;;;;;;10285903;28;20263;-74
2023/08/07 07:56:16;;;;;;;2.43;1.80;;;14.90;49.10;;;;;;10285488;28;20283;-74
2023/08/07 08:01:20;;;;;;;1.90;1.80;;;14.90;48.90;;;;;;10285065;28;20251;-73
2023/08/07 08:06:23;;;;;;;2.17;1.53;;;15.00;48.90;;;;;;10285031;28;20310;-73
2023/08/07 08:11:26;;;;;;;2.80;1.90;;;15.10;48.50;;;;;;10284735;28;20766;-73
2023/08/07 08:16:31;;;;;;;3.57;1.90;;;15.20;48.50;;;;;;10284946;28;20232;-74
2023/08/07 08:21:35;;;;;;;2.50;1.93;;;15.30;48.10;;;;;;10283650;28;20242;-74
2023/08/07 08:26:38;;;;;;;2.83;1.70;;;15.40;48.30;;;;;;10284489;28;20326;-73
2023/08/07 08:31:43;;;;;;;2.70;1.63;;;15.40;47.60;;;;;;10284094;28;20239;-73
2023/08/07 08:36:46;;;;;;;3.23;1.83;;;15.40;47.20;;;;;;10284225;28;20231;-74
2023/08/07 08:41:51;;;;;;;2.33;1.90;;;15.50;48.40;;;;;;10283775;28;20243;-74
2023/08/07 08:47:00;;;;;;;3.87;1.90;;;15.60;48.00;;;;;;10283523;28;20232;-73
2023/08/07 08:52:05;;;;;;;2.37;1.73;;;15.70;46.40;;;;;;10283105;28;20243;-74
2023/08/07 08:57:09;;;;;;;2.20;1.67;;;15.90;47.00;;;;;;10283238;28;20235;-74
2023/08/07 09:02:14;;;;;;;2.00;1.60;;;16.00;47.00;;;;;;10283062;28;20330;-74
2023/08/07 09:07:18;;;;;;;1.90;1.40;;;16.10;45.70;;;;;;10273482;28;20242;-74
2023/08/07 09:12:23;;;;;;;2.27;1.67;;;16.20;45.80;;;;;;10253062;28;20235;-74
2023/08/07 09:17:30;;;;;;;2.30;1.70;;;16.30;45.50;;;;;;10282747;28;20323;-74
2023/08/07 09:22:33;;;;;;;1.43;1.33;;;16.30;44.90;;;;;;10274623;28;20227;-74
2023/08/07 09:27:38;;;;;;;2.03;1.50;;;16.40;45.60;;;;;;10282605;28;20239;-73
2023/08/07 09:32:42;;;;;;;1.83;1.40;;;16.50;44.90;;;;;;10289416;28;20688;-74
2023/08/07 09:37:45;;;;;;;1.60;1.47;;;16.70;44.60;;;;;;10269565;28;20316;-73
2023/08/07 09:42:52;;;;;;;1.40;1.30;;;16.80;44.70;;;;;;10250756;28;20246;-73
2023/08/07 09:48:01;;;;;;;1.63;1.50;;;16.90;43.30;;;;;;10256813;28;20249;-74
2023/08/07 09:53:04;;;;;;;1.97;1.50;;;17.00;43.50;;;;;;10290065;28;20268;-73
2023/08/07 09:58:12;;;;;;;2.00;1.53;;;17.00;43.80;;;;;;10290077;28;20235;-74
2023/08/07 10:03:17;;;;;;;1.70;1.30;;;17.10;42.60;;;;;;10289855;28;20238;-73
2023/08/07 10:08:23;;;;;;;1.47;1.37;;;17.20;43.00;;;;;;10289677;28;20239;-74
2023/08/07 10:13:26;;;;;;;2.80;1.47;;;17.10;42.70;;;;;;10271387;28;20600;-73
2023/08/07 10:18:42;;;;;;;1.67;1.57;;;17.10;42.80;;;;;;10265172;28;20235;-73
2023/08/07 10:23:46;;;;;;;1.70;1.57;;;17.10;42.40;;;;;;10249052;28;20232;-74
2023/08/07 10:28:52;;;;;;;2.57;1.30;;;17.10;42.80;;;;;;10256580;28;20252;-73
2023/08/07 10:33:57;;;;;;;1.57;1.40;;;17.10;42.60;;;;;;10255269;28;20238;-74
2023/08/07 10:39:08;;;;;;;2.03;1.50;;;17.10;42.60;;;;;;10280242;28;20242;-73
2023/08/07 10:44:21;;;;;;;1.93;1.40;;;17.20;42.10;;;;;;10287373;28;20231;-74
2023/08/07 10:49:36;;;;;;;1.60;1.37;;;17.30;42.10;;;;;;10285637;28;20798;-73
2023/08/07 10:54:43;;;;;;;2.07;1.40;;;17.50;41.70;;;;;;10264100;28;20251;-74
2023/08/07 10:59:51;;;;;;;1.90;1.50;;;17.70;43.80;;;;;;10276629;28;20242;-74
2023/08/07 11:04:55;;;;;;;2.60;1.57;;;17.80;41.20;;;;;;10287815;28;20324;-74
2023/08/07 11:10:00;;;;;;;2.67;1.23;;;18.00;41.90;;;;;;10287081;28;20728;-74
2023/08/07 11:15:03;;;;;;;1.40;1.30;;;18.20;41.80;;;;;;10263697;28;20311;-74
2023/08/07 11:20:10;;;;;;;1.50;1.40;;;18.30;41.30;;;;;;10246788;28;20246;-74
2023/08/07 11:25:15;;;;;;;1.53;1.43;;;18.40;40.90;;;;;;10263327;28;20755;-74
2023/08/07 11:30:18;;;;;;;2.13;1.60;;;18.50;41.00;;;;;;10286507;28;20815;-74
2023/08/07 11:35:23;;;;;;;2.10;1.33;;;18.70;40.60;;;;;;10262417;28;20243;-74
2023/08/07 11:40:26;;;;;;;1.10;1.10;;;18.80;38.00;;;;;;10286207;28;20243;-74
2023/08/07 11:45:30;;;;;;;2.80;1.20;;;18.90;39.70;;;;;;10283005;28;20238;-74
2023/08/07 11:50:35;;;;;;;2.03;1.20;;;19.10;40.20;;;;;;10246156;29;20244;-74
2023/08/07 11:55:46;;;;;;;1.30;1.07;;;19.10;37.90;;;;;;10245583;28;20236;-74
2023/08/07 12:00:50;;;;;;;1.53;1.40;;;19.10;38.70;;;;;;10250650;28;20237;-74
2023/08/07 12:05:56;;;;;;;1.50;1.40;;;19.20;38.20;;;;;;10247380;28;20343;-74
2023/08/07 12:10:59;;;;;;;1.47;1.37;;;19.10;37.80;;;;;;10245323;28;20232;-74
2023/08/07 12:16:04;;;;;;;1.50;1.30;;;19.10;38.50;;;;;;10275409;28;20239;-74
2023/08/07 12:21:08;;;;;;;1.60;1.30;;;19.20;38.00;;;;;;10244945;28;20236;-74
2023/08/07 12:26:12;;;;;;;1.40;1.30;;;19.20;37.30;;;;;;10244724;28;20232;-74
2023/08/07 12:31:15;;;;;;;4.60;1.30;;;19.30;38.40;;;;;;10244390;28;20323;-74
2023/08/07 12:36:19;;;;;;;3.60;1.47;;;19.30;38.20;;;;;;10244291;28;20236;-74
2023/08/07 12:41:23;;;;;;;3.67;1.50;;;19.30;35.90;;;;;;10261982;28;20278;-74
2023/08/07 12:46:29;;;;;;;1.50;1.30;;;19.30;37.70;;;;;;10283788;28;20238;-74
2023/08/07 12:51:35;;;;;;;1.30;1.20;;;19.40;36.40;;;;;;10283559;28;20243;-74
2023/08/07 12:56:38;;;;;;;1.47;1.30;;;19.50;36.10;;;;;;10283466;28;20322;-74
2023/08/07 13:01:42;;;;;;;1.60;1.50;;;19.70;37.60;;;;;;10282858;28;20235;-74
2023/08/07 13:06:49;;;;;;;1.70;1.60;;;20.00;36.70;;;;;;10282668;28;20259;-74
2023/08/07 13:11:52;;;;;;;1.30;1.20;;;20.20;35.30;;;;;;10282904;28;20267;-74
2023/08/07 13:16:55;;;;;;;2.37;1.37;;;20.20;35.90;;;;;;10283142;28;20599;-73
2023/08/07 13:22:01;;;;;;;1.60;1.50;;;20.20;36.00;;;;;;10253923;28;20239;-74
2023/08/07 13:27:04;;;;;;;1.77;1.67;;;20.20;35.80;;;;;;10312831;28;20235;-74
2023/08/07 13:32:09;;;;;;;1.50;1.40;;;20.20;36.30;;;;;;10272275;28;20658;-74
2023/08/07 13:37:15;;;;;;;1.43;1.33;;;20.20;35.40;;;;;;10258381;28;20256;-73
2023/08/07 13:42:18;;;;;;;1.50;1.40;;;20.20;34.40;;;;;;10274451;28;20327;-73
2023/08/07 13:47:21;;;;;;;1.60;1.50;;;20.20;35.90;;;;;;10274311;28;20706;-74
2023/08/07 13:52:26;;;;;;;1.70;1.40;;;20.10;34.60;;;;;;10271145;28;20318;-73
2023/08/07 13:57:31;;;;;;;1.53;1.40;;;20.10;34.10;;;;;;10268811;28;20286;-74
2023/08/07 14:02:34;;;;;;;1.67;1.57;;;20.00;34.90;;;;;;10279119;28;20283;-74
2023/08/07 14:07:39;;;;;;;1.47;1.37;;;20.00;34.70;;;;;;10278070;28;20239;-73
2023/08/07 14:12:42;;;;;;;1.77;1.40;;;19.90;33.70;;;;;;10276299;28;20234;-74
2023/08/07 14:17:45;;;;;;;2.97;1.67;;;19.90;34.70;;;;;;10279176;28;20400;-73
2023/08/07 14:22:50;;;;;;;2.13;1.53;;;19.80;34.20;;;;;;10277205;28;20231;-74
2023/08/07 14:27:53;;;;;;;1.80;1.50;;;19.80;33.70;;;;;;10281614;28;20232;-73
2023/08/07 14:32:56;;;;;;;1.40;1.30;;;19.70;35.00;;;;;;10273976;28;20247;-73
2023/08/07 14:38:01;;;;;;;1.30;1.20;;;19.60;34.10;;;;;;10283403;28;20663;-73
2023/08/07 14:43:04;;;;;;;1.30;1.13;;;19.60;33.90;;;;;;10270162;28;20771;-74
2023/08/07 14:48:07;;;;;;;1.67;1.27;;;19.50;35.00;;;;;;10262605;28;20252;-73
2023/08/07 14:53:12;;;;;;;1.30;1.20;;;19.50;35.30;;;;;;10280031;28;20231;-74
2023/08/07 14:58:15;;;;;;;2.47;1.27;;;19.40;35.00;;;;;;10274936;28;20839;-74
2023/08/07 15:03:18;;;;;;;1.63;1.17;;;19.40;35.20;;;;;;10275175;28;20240;-74
2023/08/07 15:08:23;;;;;;;2.20;1.10;;;19.30;35.50;;;;;;10261951;28;20244;-73
2023/08/07 15:13:26;;;;;;;1.47;1.20;;;19.20;35.80;;;;;;10284027;28;20251;-73
2023/08/07 15:18:30;;;;;;;1.40;1.30;;;19.10;35.70;;;;;;10269620;28;20664;-74
2023/08/07 15:23:34;;;;;;;1.37;1.10;;;19.00;35.60;;;;;;10276076;28;20315;-73
2023/08/07 15:28:37;;;;;;;2.47;1.40;;;18.90;36.10;;;;;;10272158;28;20231;-74
2023/08/07 15:33:42;;;;;;;1.23;1.00;;;18.70;36.70;;;;;;10276051;28;20317;-73
2023/08/07 15:38:46;;;;;;;1.20;1.10;;;18.60;37.00;;;;;;10276916;28;20236;-74
2023/08/07 15:43:50;;;;;;;1.30;1.20;;;18.60;37.30;;;;;;10273466;28;20605;-74
2023/08/07 15:48:55;;;;;;;2.90;1.00;;;18.50;36.80;;;;;;10264633;28;20236;-74
2023/08/07 15:53:59;;;;;;;2.23;1.20;;;18.50;37.10;;;;;;10271049;28;20240;-74
2023/08/07 15:59:03;;;;;;;1.17;1.10;;;18.40;37.10;;;;;;10276936;28;20955;-74
2023/08/07 16:04:06;;;;;;;1.33;1.23;;;18.40;37.50;;;;;;10267876;28;20236;-74
2023/08/07 16:09:10;;;;;;;1.43;1.30;;;18.40;37.60;;;;;;10268472;28;20243;-74
2023/08/07 16:14:14;;;;;;;1.53;1.33;;;18.40;37.60;;;;;;10276916;28;20235;-73
2023/08/07 16:19:17;;;;;;;1.60;1.23;;;18.40;37.90;;;;;;10279474;28;20322;-74
2023/08/07 16:24:21;;;;;;;1.30;1.20;;;18.50;38.00;;;;;;10268507;28;20316;-73
2023/08/07 16:29:24;;;;;;;2.03;1.17;;;18.50;38.00;;;;;;10271644;28;20262;-74
2023/08/07 16:34:28;;;;;;;1.50;1.40;;;18.50;38.10;;;;;;10265406;28;21100;-74
2023/08/07 16:39:32;;;;;;;2.03;1.50;;;18.50;38.00;;;;;;10271452;28;20336;-74
2023/08/07 16:44:35;;;;;;;1.50;1.40;;;18.50;38.10;;;;;;10275672;28;20318;-74
2023/08/07 16:49:38;;;;;;;1.30;1.30;;;18.50;38.10;;;;;;10272457;28;20315;-74
2023/08/07 16:54:43;;;;;;;1.10;1.10;;;18.40;38.00;;;;;;10277662;28;20763;-74
2023/08/07 16:59:46;;;;;;;1.33;1.23;;;18.50;38.10;;;;;;10278499;28;20228;-74
2023/08/07 17:04:50;;;;;;;2.50;2.20;;;18.50;38.00;;;;;;10270123;28;20724;-74
2023/08/07 17:09:54;;;;;;;4.13;3.83;;;18.50;37.80;;;;;;10271530;28;20231;-74
2023/08/07 17:14:57;;;;;;;2.37;2.10;;;18.50;37.50;;;;;;10273245;28;20343;-74
2023/08/07 17:20:00;;;;;;;1.40;1.30;;;18.50;37.70;;;;;;10275751;28;20574;-74
2023/08/07 17:25:06;;;;;;;1.80;1.67;;;18.40;37.70;;;;;;10254252;28;20233;-74
2023/08/07 17:30:09;;;;;;;1.30;1.20;;;18.40;37.60;;;;;;10274986;28;20664;-74
2023/08/07 17:35:12;;;;;;;1.67;1.57;;;18.50;37.70;;;;;;10263475;28;20767;-73
2023/08/07 17:40:17;;;;;;;3.80;3.50;;;18.50;37.60;;;;;;10276506;28;20815;-74
2023/08/07 17:45:21;;;;;;;2.60;2.40;;;18.50;37.40;;;;;;10269858;28;20239;-73
2023/08/07 17:50:24;;;;;;;2.40;2.30;;;18.40;37.30;;;;;;10268427;28;20654;-74
2023/08/07 17:55:30;;;;;;;2.60;2.40;;;18.40;37.50;;;;;;10276434;28;20233;-74
2023/08/07 18:00:33;;;;;;;2.30;2.10;;;18.30;37.60;;;;;;10275757;28;20593;-73
2023/08/07 18:05:37;;;;;;;2.83;2.63;;;18.30;37.80;;;;;;10285409;28;20307;-74
2023/08/07 18:10:41;;;;;;;2.00;1.90;;;18.20;37.70;;;;;;10275315;28;20251;-73
2023/08/07 18:15:44;;;;;;;2.70;2.50;;;18.20;37.80;;;;;;10269011;28;20310;-73
2023/08/07 18:20:48;;;;;;;2.67;2.47;;;18.10;37.90;;;;;;10273386;28;20327;-74
2023/08/07 18:25:52;;;;;;;1.80;1.70;;;18.10;38.00;;;;;;10277374;28;20232;-73
2023/08/07 18:30:55;;;;;;;1.90;1.70;;;18.00;38.00;;;;;;10275308;28;20231;-73
2023/08/07 18:35:59;;;;;;;2.33;1.60;;;18.00;38.40;;;;;;10281506;28;20239;-73
2023/08/07 18:41:06;;;;;;;1.93;1.50;;;17.90;38.40;;;;;;10281961;28;20258;-73
2023/08/07 18:46:09;;;;;;;1.90;1.70;;;17.90;38.40;;;;;;10284012;28;20237;-73
2023/08/07 18:51:13;;;;;;;1.80;1.50;;;17.80;38.40;;;;;;10271459;28;20235;-73
2023/08/07 18:56:17;;;;;;;1.60;1.50;;;17.80;38.50;;;;;;10272000;28;20236;-73
2023/08/07 19:01:20;;;;;;;1.60;1.50;;;17.80;38.60;;;;;;10265065;28;20307;-73
2023/08/07 19:06:24;;;;;;;1.80;1.63;;;17.70;38.50;;;;;;10271559;28;20246;-73
2023/08/07 19:11:28;;;;;;;3.20;1.80;;;17.70;38.50;;;;;;10271648;28;20235;-73
2023/08/07 19:16:34;;;;;;;1.90;1.80;;;17.70;38.60;;;;;;10285408;28;20229;-74
2023/08/07 19:21:37;;;;;;;2.60;1.93;;;17.70;38.70;;;;;;10275241;28;20243;-73
2023/08/07 19:26:42;;;;;;;1.80;1.60;;;17.60;38.60;;;;;;10271926;28;20238;-73
2023/08/07 19:31:45;;;;;;;1.90;1.80;;;17.60;38.60;;;;;;10280345;28;20233;-73
2023/08/07 19:36:50;;;;;;;1.70;1.60;;;17.60;38.60;;;;;;10281556;28;20338;-73
2023/08/07 19:41:54;;;;;;;2.00;1.90;;;17.60;38.70;;;;;;10268687;28;20788;-73
2023/08/07 19:46:57;;;;;;;2.03;1.93;;;17.50;38.60;;;;;;10271313;28;20693;-73
2023/08/07 19:52:02;;;;;;;2.10;1.90;;;17.50;38.60;;;;;;10265316;28;20235;-74
2023/08/07 19:57:07;;;;;;;1.80;1.70;;;17.40;38.60;;;;;;10270499;28;20256;-74
2023/08/07 20:02:10;;;;;;;2.50;1.90;;;17.40;38.60;;;;;;10271810;28;20775;-74
2023/08/07 20:07:13;;;;;;;2.27;2.07;;;17.40;38.80;;;;;;10273402;28;20345;-74
2023/08/07 20:12:19;;;;;;;1.73;1.63;;;17.30;38.60;;;;;;10270394;28;20700;-74
2023/08/07 20:17:22;;;;;;;1.87;1.77;;;17.30;38.60;;;;;;10270277;28;20228;-74
2023/08/07 20:22:26;;;;;;;2.30;1.87;;;17.20;38.70;;;;;;10272081;28;20250;-74
2023/08/07 20:27:30;;;;;;;2.30;1.93;;;17.10;38.80;;;;;;10279770;28;20231;-74
2023/08/07 20:32:33;;;;;;;2.03;1.83;;;17.10;38.90;;;;;;10265940;28;20238;-73
2023/08/07 20:37:37;;;;;;;2.03;1.93;;;17.00;38.80;;;;;;10279013;28;20227;-74
2023/08/07 20:42:41;;;;;;;1.97;1.87;;;17.00;38.90;;;;;;10270669;28;20867;-74
2023/08/07 20:47:45;;;;;;;1.90;1.80;;;16.90;39.00;;;;;;10267035;28;20238;-74
2023/08/07 20:52:49;;;;;;;2.27;2.00;;;16.90;39.10;;;;;;10274947;28;20223;-74
2023/08/07 20:57:53;;;;;;;1.87;1.77;;;16.80;39.20;;;;;;10276651;28;20232;-74
2023/08/07 21:02:56;;;;;;;1.53;1.43;;;16.70;39.40;;;;;;10270737;28;20262;-74
2023/08/07 21:07:59;;;;;;;1.60;1.50;;;16.70;39.40;;;;;;10273497;28;20242;-73
2023/08/07 21:13:04;;;;;;;2.83;1.93;;;16.60;39.60;;;;;;10270057;28;20279;-74
2023/08/07 21:18:07;;;;;;;3.43;1.70;;;16.50;39.90;;;;;;10264734;28;20701;-74
2023/08/07 21:23:12;;;;;;;3.10;1.70;;;16.40;39.90;;;;;;10265339;28;20324;-74
2023/08/07 21:28:17;;;;;;;1.50;1.40;;;16.40;40.20;;;;;;10268309;28;20240;-74
2023/08/07 21:33:20;;;;;;;1.60;1.50;;;16.40;40.60;;;;;;10268266;28;20239;-74
2023/08/07 21:38:23;;;;;;;1.40;1.30;;;16.40;40.40;;;;;;10269083;28;20245;-74
2023/08/07 21:43:27;;;;;;;1.50;1.27;;;16.30;40.40;;;;;;10264503;28;20250;-74
2023/08/07 21:48:31;;;;;;;1.40;1.27;;;16.30;40.80;;;;;;10266786;28;20240;-74
2023/08/07 21:53:34;;;;;;;1.50;1.40;;;16.30;40.50;;;;;;10269776;28;20576;-74
2023/08/07 21:58:39;;;;;;;1.50;1.40;;;16.30;40.50;;;;;;10264360;28;20237;-74
2023/08/07 22:03:42;;;;;;;1.80;1.40;;;16.30;41.00;;;;;;10266282;28;20242;-74
2023/08/07 22:08:45;;;;;;;1.50;1.23;;;16.20;40.70;;;;;;10263680;28;20331;-74
2023/08/07 22:13:50;;;;;;;1.30;1.20;;;16.20;40.90;;;;;;10264419;28;20251;-74
2023/08/07 22:18:53;;;;;;;1.17;1.10;;;16.10;41.10;;;;;;10272945;28;20227;-74
2023/08/07 22:23:56;;;;;;;1.47;1.37;;;16.10;40.90;;;;;;10266699;28;20236;-74
2023/08/07 22:29:01;;;;;;;1.27;1.20;;;16.00;40.90;;;;;;10257280;28;20237;-74
2023/08/07 22:34:04;;;;;;;1.50;1.40;;;16.00;41.20;;;;;;10272974;28;20234;-75
2023/08/07 22:39:07;;;;;;;1.30;1.30;;;16.00;41.00;;;;;;10275114;28;21021;-74
2023/08/07 22:44:12;;;;;;;1.27;1.17;;;16.00;41.00;;;;;;10275614;28;20239;-74
2023/08/07 22:49:17;;;;;;;1.50;1.40;;;16.00;41.10;;;;;;10276036;28;20336;-74
2023/08/07 22:54:20;;;;;;;2.03;1.50;;;16.00;40.90;;;;;;10269371;28;20238;-74
2023/08/07 22:59:25;;;;;;;2.50;1.20;;;15.90;40.90;;;;;;10270096;28;20709;-74
2023/08/07 23:04:28;;;;;;;1.50;1.40;;;15.90;41.10;;;;;;10262960;28;20326;-74
2023/08/07 23:09:31;;;;;;;1.17;1.10;;;15.90;41.10;;;;;;10275613;28;20243;-74
2023/08/07 23:14:36;;;;;;;1.33;1.23;;;15.80;40.90;;;;;;10274066;28;20725;-74
2023/08/07 23:19:39;;;;;;;1.03;1.03;;;15.70;41.20;;;;;;10275440;28;20236;-74
2023/08/07 23:24:42;;;;;;;0.93;0.93;;;15.60;41.10;;;;;;10271873;28;20295;-74
2023/08/07 23:29:46;;;;;;;1.50;1.30;;;15.40;41.30;;;;;;10276264;28;20315;-74
2023/08/07 23:34:50;;;;;;;1.30;1.30;;;15.40;41.80;;;;;;10263732;28;20231;-74
2023/08/07 23:39:53;;;;;;;1.10;1.10;;;15.30;41.70;;;;;;10277617;28;20238;-74
2023/08/07 23:44:57;;;;;;;1.40;1.30;;;15.30;41.80;;;;;;10274353;28;20236;-74
2023/08/07 23:50:00;;;;;;;1.30;1.20;;;15.30;42.20;;;;;;10271578;28;20712;-74
2023/08/07 23:55:05;;;;;;;1.33;1.17;;;15.30;42.00;;;;;;10273038;28;20802;-74
